Time;durP1;ratioP1;P1;durP2;ratioP2;P2;SDS_P1;SDS_P2;PMS_P1;PMS_P2;Temp;Humidity;BMP_temperature;BMP_pressure;BME280_temperature;BME280_humidity;BME280_pressure;Samples;Min_cycle;Max_cycle;Signal;HPM_P1;HPM_P2
2023/01/10 00:00:43;;;;;;;48.92;28.30;;;8.20;99.90;;;;;;5037489;28;20261;-76
2023/01/10 00:03:32;;;;;;;49.08;29.27;;;8.20;99.90;;;;;;5037833;28;20587;-81
2023/01/10 00:06:21;;;;;;;49.88;28.45;;;8.30;99.90;;;;;;5031891;28;20221;-77
2023/01/10 00:09:10;;;;;;;52.33;29.03;;;8.20;99.90;;;;;;5025529;28;20209;-76
2023/01/10 00:15:06;;;;;;;53.05;29.83;;;8.30;99.90;;;;;;5026567;28;20427;-76
2023/01/10 00:17:56;;;;;;;58.60;30.98;;;8.30;99.90;;;;;;5020593;28;20308;-77
2023/01/10 00:20:45;;;;;;;60.35;29.92;;;8.30;99.90;;;;;;5035573;28;20213;-77
2023/01/10 00:23:35;;;;;;;57.90;31.00;;;8.20;99.90;;;;;;5032772;28;20675;-79
2023/01/10 00:26:24;;;;;;;65.20;32.37;;;8.20;99.90;;;;;;5043077;28;20220;-78
2023/01/10 00:29:14;;;;;;;63.78;33.20;;;8.20;99.90;;;;;;5038502;28;20294;-77
2023/01/10 00:32:03;;;;;;;70.40;33.47;;;8.20;99.90;;;;;;5039391;28;20222;-78
2023/01/10 00:34:56;;;;;;;65.83;32.53;;;8.20;99.90;;;;;;5037660;28;20537;-77
2023/01/10 00:37:45;;;;;;;67.27;32.63;;;8.10;99.90;;;;;;5033068;28;20217;-77
2023/01/10 00:40:34;;;;;;;72.60;33.10;;;8.10;99.90;;;;;;5023263;28;20285;-78
2023/01/10 00:46:29;;;;;;;61.77;32.37;;;8.10;99.90;;;;;;5028651;28;20282;-78
2023/01/10 00:49:18;;;;;;;72.23;34.43;;;8.10;99.90;;;;;;5040250;28;20537;-77
2023/01/10 00:52:08;;;;;;;64.87;33.03;;;8.20;99.90;;;;;;5023490;28;20860;-79
2023/01/10 00:54:57;;;;;;;62.20;31.80;;;8.20;99.90;;;;;;5026552;28;20232;-78
2023/01/10 00:57:46;;;;;;;59.73;31.87;;;8.20;99.90;;;;;;5041394;28;20270;-78
2023/01/10 01:00:35;;;;;;;59.57;31.63;;;8.10;99.90;;;;;;5033804;28;20258;-78
2023/01/10 01:03:23;;;;;;;63.07;32.00;;;8.00;99.90;;;;;;5024168;28;20221;-77
2023/01/10 01:06:12;;;;;;;63.97;32.33;;;8.10;99.90;;;;;;5034838;28;20323;-78
2023/01/10 01:09:04;;;;;;;61.90;32.60;;;8.20;99.90;;;;;;5021994;28;20224;-78
2023/01/10 01:11:52;;;;;;;63.33;32.67;;;8.20;99.90;;;;;;5020072;28;20328;-79
2023/01/10 01:14:41;;;;;;;66.90;33.67;;;8.20;99.90;;;;;;5036993;28;20236;-77
2023/01/10 01:17:30;;;;;;;71.83;34.73;;;8.20;99.90;;;;;;5031943;28;20830;-79
2023/01/10 01:20:19;;;;;;;65.17;33.90;;;8.10;99.90;;;;;;5016279;28;20230;-78
2023/01/10 01:23:08;;;;;;;74.33;34.63;;;8.10;99.90;;;;;;5029492;28;20596;-78
2023/01/10 01:25:59;;;;;;;73.03;34.90;;;8.10;99.90;;;;;;5034211;28;22000;-79
2023/01/10 01:28:47;;;;;;;71.37;35.80;;;8.10;99.90;;;;;;5041304;28;20228;-80
2023/01/10 01:31:36;;;;;;;74.53;35.47;;;8.20;99.90;;;;;;5049372;28;20233;-78
2023/01/10 01:34:25;;;;;;;68.13;34.57;;;8.20;99.90;;;;;;5035015;28;20217;-78
2023/01/10 01:37:15;;;;;;;71.93;34.77;;;8.20;99.90;;;;;;5027983;28;20284;-79
2023/01/10 01:40:04;;;;;;;71.83;34.47;;;8.20;99.90;;;;;;5027438;28;20217;-80
2023/01/10 01:42:55;;;;;;;74.27;36.83;;;8.20;99.90;;;;;;5036188;28;20252;-78
2023/01/10 01:45:47;;;;;;;71.97;34.28;;;8.10;99.90;;;;;;5032113;28;21154;-80
2023/01/10 01:48:38;;;;;;;71.63;34.30;;;8.00;99.90;;;;;;5033940;28;20222;-79
2023/01/10 01:51:30;;;;;;;71.87;35.93;;;8.10;99.90;;;;;;5023851;28;20253;-79
2023/01/10 01:54:20;;;;;;;72.93;36.30;;;8.10;99.90;;;;;;5047646;28;20275;-79
2023/01/10 01:57:13;;;;;;;70.17;35.73;;;8.20;99.90;;;;;;5026317;28;20221;-80
2023/01/10 02:00:05;;;;;;;73.70;35.53;;;8.20;99.90;;;;;;5025418;28;20279;-79
2023/01/10 02:03:00;;;;;;;67.53;35.43;;;8.30;99.90;;;;;;5034161;28;20653;-79
2023/01/10 02:05:51;;;;;;;77.97;36.53;;;8.20;99.90;;;;;;5026793;28;20671;-79
2023/01/10 02:08:49;;;;;;;71.77;35.83;;;8.20;99.90;;;;;;5040671;28;20229;-78
2023/01/10 02:11:38;;;;;;;77.03;36.80;;;8.10;99.90;;;;;;5034135;28;20695;-81
2023/01/10 02:14:26;;;;;;;73.93;36.55;;;8.20;99.90;;;;;;5021397;28;20228;-78
2023/01/10 02:17:17;;;;;;;77.93;37.93;;;8.30;99.90;;;;;;5027848;28;20928;-78
2023/01/10 02:20:09;;;;;;;75.93;37.88;;;8.20;99.90;;;;;;5017992;28;21051;-78
2023/01/10 02:23:28;;;;;;;79.60;37.17;;;8.30;99.90;;;;;;5023971;28;20712;-78
2023/01/10 02:26:45;;;;;;;79.67;37.80;;;8.30;99.90;;;;;;5025369;28;20264;-79
2023/01/10 02:30:00;;;;;;;79.40;36.60;;;8.20;99.90;;;;;;5054765;28;20852;-78
2023/01/10 02:32:57;;;;;;;78.38;36.70;;;8.20;99.90;;;;;;5026070;28;20340;-78
2023/01/10 02:36:15;;;;;;;78.67;37.90;;;8.20;99.90;;;;;;5025318;28;20297;-78
2023/01/10 02:39:11;;;;;;;76.63;37.43;;;8.20;99.90;;;;;;5034274;28;20268;-80
2023/01/10 02:42:06;;;;;;;70.60;37.33;;;8.10;99.90;;;;;;5037751;28;20259;-79
2023/01/10 02:45:00;;;;;;;74.13;37.77;;;8.20;99.90;;;;;;5017708;28;20276;-78
2023/01/10 02:47:50;;;;;;;79.37;38.03;;;8.20;99.90;;;;;;5049601;28;20245;-82
2023/01/10 02:50:56;;;;;;;76.00;38.43;;;8.20;99.90;;;;;;5037482;28;20238;-78
2023/01/10 02:53:49;;;;;;;79.27;38.03;;;8.30;99.90;;;;;;5029343;28;20224;-78
2023/01/10 02:57:15;;;;;;;74.30;37.47;;;8.20;99.90;;;;;;5032864;28;20208;-79
2023/01/10 03:00:12;;;;;;;82.20;39.47;;;8.30;99.90;;;;;;5034637;28;20227;-78
2023/01/10 03:03:15;;;;;;;78.40;37.97;;;8.20;99.90;;;;;;5032578;28;20216;-78
2023/01/10 03:06:15;;;;;;;77.18;37.60;;;8.20;99.90;;;;;;5039889;28;20230;-79
2023/01/10 03:09:13;;;;;;;73.90;37.17;;;8.20;99.90;;;;;;5029626;28;20780;-78
2023/01/10 03:12:11;;;;;;;69.50;35.87;;;8.30;99.90;;;;;;5024451;28;20236;-78
2023/01/10 03:15:02;;;;;;;75.77;36.93;;;8.30;99.90;;;;;;5043825;28;20241;-79
2023/01/10 03:17:57;;;;;;;73.83;36.60;;;8.30;99.90;;;;;;5047690;28;20728;-79
2023/01/10 03:20:49;;;;;;;70.15;35.58;;;8.20;99.90;;;;;;5030059;28;20220;-79
2023/01/10 03:23:40;;;;;;;68.43;34.87;;;8.30;99.90;;;;;;5037189;28;20286;-78
2023/01/10 03:26:35;;;;;;;68.23;35.90;;;8.20;99.90;;;;;;5019984;28;20236;-79
2023/01/10 03:29:30;;;;;;;65.97;36.40;;;8.30;99.90;;;;;;5028751;28;20331;-79
2023/01/10 03:32:23;;;;;;;67.37;35.60;;;8.30;99.90;;;;;;5027490;28;20251;-78
2023/01/10 03:35:14;;;;;;;73.57;35.83;;;8.30;99.90;;;;;;5024659;28;20388;-78
2023/01/10 03:38:10;;;;;;;67.27;35.37;;;8.20;99.90;;;;;;5047420;28;20294;-78
2023/01/10 03:41:07;;;;;;;65.23;34.67;;;8.20;99.90;;;;;;5019989;28;20754;-78
2023/01/10 03:47:15;;;;;;;66.47;34.30;;;8.30;99.90;;;;;;5032585;28;20235;-78
2023/01/10 03:50:08;;;;;;;71.87;35.50;;;8.30;99.90;;;;;;5038385;28;20235;-78
2023/01/10 03:52:58;;;;;;;62.70;32.80;;;8.30;99.90;;;;;;5039649;28;20232;-79
2023/01/10 03:55:48;;;;;;;60.83;32.27;;;8.30;99.90;;;;;;5029084;28;20224;-78
2023/01/10 03:58:37;;;;;;;63.63;33.37;;;8.20;99.90;;;;;;5033971;28;20297;-77
2023/01/10 04:01:26;;;;;;;62.43;32.90;;;8.20;99.90;;;;;;5034942;28;20221;-79
2023/01/10 04:04:15;;;;;;;66.80;32.70;;;8.20;99.90;;;;;;5032637;28;20235;-78
2023/01/10 04:07:04;;;;;;;66.30;33.23;;;8.20;99.90;;;;;;5031344;28;20720;-77
2023/01/10 04:09:53;;;;;;;56.63;31.73;;;8.20;99.90;;;;;;5042704;28;20256;-78
2023/01/10 04:12:43;;;;;;;66.00;33.43;;;8.20;99.90;;;;;;5023050;28;20232;-79
2023/01/10 04:15:32;;;;;;;61.07;32.03;;;8.30;99.90;;;;;;5037323;28;20235;-76
2023/01/10 04:18:21;;;;;;;62.33;32.73;;;8.30;99.90;;;;;;5032421;28;20240;-79
2023/01/10 04:21:10;;;;;;;70.73;34.33;;;8.30;99.90;;;;;;5028150;28;20981;-78
2023/01/10 04:23:59;;;;;;;70.17;33.63;;;8.40;99.90;;;;;;5042738;28;20608;-77
2023/01/10 04:26:47;;;;;;;60.40;32.67;;;8.30;99.90;;;;;;5040263;28;20214;-77
2023/01/10 04:29:38;;;;;;;65.77;32.53;;;8.20;99.90;;;;;;5035080;28;20755;-79
2023/01/10 04:32:26;;;;;;;67.87;33.10;;;8.30;99.90;;;;;;5022187;28;20271;-78
2023/01/10 04:35:15;;;;;;;64.40;33.30;;;8.30;99.90;;;;;;5025900;28;20232;-78
2023/01/10 04:38:04;;;;;;;66.10;33.07;;;8.40;99.90;;;;;;5017132;28;20241;-77
2023/01/10 04:40:54;;;;;;;65.73;32.60;;;8.40;99.90;;;;;;5036218;28;20344;-77
2023/01/10 04:43:43;;;;;;;62.13;32.03;;;8.40;99.90;;;;;;5041046;28;20762;-78
2023/01/10 04:46:33;;;;;;;67.27;34.37;;;8.40;99.90;;;;;;5046413;28;20234;-78
2023/01/10 04:49:22;;;;;;;62.77;32.63;;;8.40;99.90;;;;;;5037550;28;20265;-78
2023/01/10 04:52:11;;;;;;;66.87;32.40;;;8.40;99.90;;;;;;5032949;28;20355;-78
2023/01/10 04:55:00;;;;;;;67.13;32.15;;;8.30;99.90;;;;;;5024726;28;20319;-78
2023/01/10 04:57:49;;;;;;;70.20;35.40;;;8.40;99.90;;;;;;5031030;28;20286;-78
2023/01/10 05:00:38;;;;;;;69.00;33.50;;;8.50;99.90;;;;;;5033145;28;20233;-78
2023/01/10 05:03:28;;;;;;;70.50;34.40;;;8.40;99.90;;;;;;5019999;28;20229;-77
2023/01/10 05:06:18;;;;;;;68.45;33.95;;;8.50;99.90;;;;;;5016922;28;20237;-78
2023/01/10 05:09:07;;;;;;;80.18;37.40;;;8.40;99.90;;;;;;5031375;28;20244;-78
2023/01/10 05:11:55;;;;;;;78.53;38.08;;;8.40;99.90;;;;;;5033820;28;20239;-78
2023/01/10 05:14:44;;;;;;;77.55;35.08;;;8.40;99.90;;;;;;5043352;28;20255;-78
2023/01/10 05:17:33;;;;;;;70.33;34.90;;;8.40;99.90;;;;;;5037533;28;20232;-78
2023/01/10 05:20:23;;;;;;;68.70;33.77;;;8.30;99.90;;;;;;5034380;28;20234;-79
2023/01/10 05:23:12;;;;;;;74.35;34.38;;;8.40;99.90;;;;;;5037339;28;20360;-78
2023/01/10 05:26:06;;;;;;;69.33;33.60;;;8.40;99.90;;;;;;5038400;28;20575;-78
2023/01/10 05:28:54;;;;;;;66.13;31.70;;;8.30;99.90;;;;;;5031506;28;20236;-78
2023/01/10 05:31:43;;;;;;;65.60;32.17;;;8.20;99.90;;;;;;5024884;28;20243;-78
2023/01/10 05:34:33;;;;;;;61.05;30.45;;;8.20;99.90;;;;;;5046745;28;20334;-77
2023/01/10 05:37:23;;;;;;;64.43;31.37;;;8.30;99.90;;;;;;5036133;28;20247;-78
2023/01/10 05:40:12;;;;;;;64.37;31.63;;;8.20;99.90;;;;;;5018475;28;20222;-79
2023/01/10 05:43:01;;;;;;;59.67;30.77;;;8.20;99.90;;;;;;5024392;28;20354;-78
2023/01/10 05:45:51;;;;;;;59.70;29.00;;;8.30;99.90;;;;;;5040250;28;20229;-79
2023/01/10 05:48:40;;;;;;;57.45;29.55;;;8.20;99.90;;;;;;5051201;28;20229;-78
2023/01/10 05:51:28;;;;;;;64.43;31.77;;;8.30;99.90;;;;;;5038429;28;20224;-78
2023/01/10 05:54:19;;;;;;;61.73;31.13;;;8.20;99.90;;;;;;5041643;28;20243;-78
2023/01/10 05:57:08;;;;;;;63.10;31.27;;;8.20;99.90;;;;;;5035308;28;20682;-78
2023/01/10 05:59:57;;;;;;;66.18;31.70;;;8.20;99.90;;;;;;5031240;28;20233;-79
2023/01/10 06:02:46;;;;;;;69.73;33.73;;;8.20;99.90;;;;;;5033267;28;20234;-79
2023/01/10 06:05:35;;;;;;;61.22;31.92;;;8.20;99.90;;;;;;5027547;28;20221;-82
2023/01/10 06:08:24;;;;;;;68.43;33.00;;;8.20;99.90;;;;;;5049172;28;20285;-80
2023/01/10 06:11:15;;;;;;;66.13;32.10;;;8.20;99.90;;;;;;5016237;28;20304;-79
2023/01/10 06:14:04;;;;;;;67.65;31.98;;;8.30;99.90;;;;;;5029971;28;20776;-80
2023/01/10 06:16:53;;;;;;;68.07;32.67;;;8.30;99.90;;;;;;5038795;28;20228;-79
2023/01/10 06:19:42;;;;;;;75.13;33.47;;;8.30;99.90;;;;;;5016620;28;20690;-79
2023/01/10 06:22:30;;;;;;;67.77;31.53;;;8.30;99.90;;;;;;5037512;28;20331;-80
2023/01/10 06:25:20;;;;;;;62.87;30.60;;;8.30;99.90;;;;;;5030116;28;20687;-80
2023/01/10 06:28:19;;;;;;;69.30;32.65;;;8.30;99.90;;;;;;5044001;28;20584;-79
2023/01/10 06:31:08;;;;;;;64.50;32.27;;;8.30;99.90;;;;;;5018777;28;20300;-78
2023/01/10 06:33:56;;;;;;;67.37;32.13;;;8.30;99.90;;;;;;5021166;28;20240;-78
2023/01/10 06:36:45;;;;;;;62.87;31.73;;;8.40;99.90;;;;;;5018162;28;20225;-79
2023/01/10 06:39:34;;;;;;;72.20;32.47;;;8.30;99.90;;;;;;5039600;28;20231;-78
2023/01/10 06:42:23;;;;;;;65.32;31.30;;;8.30;99.90;;;;;;5025297;28;20260;-78
2023/01/10 06:45:14;;;;;;;72.43;31.60;;;8.30;99.90;;;;;;5020750;28;20229;-78
2023/01/10 06:48:03;;;;;;;73.60;32.53;;;8.30;99.90;;;;;;5033717;28;20830;-77
2023/01/10 06:50:52;;;;;;;68.20;32.30;;;8.30;99.90;;;;;;5034604;28;20248;-80
2023/01/10 06:53:41;;;;;;;77.13;34.83;;;8.20;99.90;;;;;;5037568;28;20237;-77
2023/01/10 06:56:30;;;;;;;76.37;33.87;;;8.20;99.90;;;;;;5029330;28;20305;-78
2023/01/10 06:59:19;;;;;;;79.10;35.13;;;8.30;99.90;;;;;;5032396;28;20270;-78
2023/01/10 07:02:11;;;;;;;77.27;34.77;;;8.20;99.90;;;;;;5043127;28;20264;-78
2023/01/10 07:05:00;;;;;;;76.90;34.87;;;8.20;99.90;;;;;;5024867;28;20250;-78
2023/01/10 07:07:49;;;;;;;85.50;35.20;;;8.10;99.90;;;;;;5034257;28;20242;-77
2023/01/10 07:10:40;;;;;;;85.77;34.97;;;8.20;99.90;;;;;;5052618;28;20797;-78
2023/01/10 07:13:29;;;;;;;82.53;34.85;;;8.20;99.90;;;;;;5015970;28;20231;-77
2023/01/10 07:16:18;;;;;;;83.97;33.73;;;8.10;99.90;;;;;;5035584;28;20232;-77
2023/01/10 07:19:08;;;;;;;67.70;32.20;;;8.10;99.90;;;;;;5025601;28;20843;-76
2023/01/10 07:21:57;;;;;;;67.70;32.13;;;8.20;99.90;;;;;;5038785;28;20226;-77
2023/01/10 07:24:46;;;;;;;67.73;31.57;;;8.20;99.90;;;;;;5029258;28;20224;-77
2023/01/10 07:27:34;;;;;;;62.93;31.17;;;8.20;99.90;;;;;;5049434;28;20678;-76
2023/01/10 07:30:24;;;;;;;63.40;31.77;;;8.20;99.90;;;;;;5035786;28;20250;-80
2023/01/10 07:33:13;;;;;;;61.53;31.10;;;8.30;99.90;;;;;;5039676;28;20232;-77
2023/01/10 07:36:04;;;;;;;62.93;32.67;;;8.30;99.90;;;;;;5004471;28;20232;-77
2023/01/10 07:38:52;;;;;;;61.90;32.23;;;8.30;99.90;;;;;;5021291;28;20662;-77
2023/01/10 07:41:41;;;;;;;67.10;31.33;;;8.20;99.90;;;;;;5018700;28;20283;-78
2023/01/10 07:44:31;;;;;;;69.78;33.00;;;8.10;99.90;;;;;;5015950;28;20227;-78
2023/01/10 07:47:22;;;;;;;62.97;32.57;;;8.00;99.90;;;;;;5010340;28;20249;-81
2023/01/10 07:50:16;;;;;;;69.77;32.93;;;8.10;99.90;;;;;;5018729;28;21928;-82
2023/01/10 07:53:15;;;;;;;67.23;32.67;;;8.20;99.90;;;;;;5045987;28;20217;-81
2023/01/10 07:56:07;;;;;;;60.40;31.77;;;8.20;99.90;;;;;;5044443;28;20248;-83
2023/01/10 07:58:57;;;;;;;71.87;33.33;;;8.30;99.90;;;;;;5033732;28;20688;-78
2023/01/10 08:01:47;;;;;;;66.07;33.27;;;8.30;99.90;;;;;;5031464;28;20222;-78
2023/01/10 08:04:37;;;;;;;67.47;33.37;;;8.30;99.90;;;;;;5037882;28;20221;-77
2023/01/10 08:07:25;;;;;;;67.43;32.70;;;8.20;99.90;;;;;;5011248;28;20756;-77
2023/01/10 08:10:17;;;;;;;66.70;33.47;;;8.30;99.90;;;;;;5017865;28;20320;-74
2023/01/10 08:13:06;;;;;;;63.60;32.63;;;8.30;99.90;;;;;;5019343;28;20245;-77
2023/01/10 08:16:07;;;;;;;71.10;34.53;;;8.30;99.90;;;;;;5012473;28;20300;-78
2023/01/10 08:18:56;;;;;;;66.97;34.70;;;8.20;99.90;;;;;;5021416;28;20221;-79
2023/01/10 08:21:45;;;;;;;73.53;35.23;;;8.20;99.90;;;;;;5033276;28;20875;-78
2023/01/10 08:24:33;;;;;;;71.63;34.87;;;8.30;99.90;;;;;;5031825;28;20222;-76
2023/01/10 08:27:24;;;;;;;70.88;33.63;;;8.30;99.90;;;;;;5036105;28;20240;-78
2023/01/10 08:30:13;;;;;;;68.90;34.00;;;8.30;99.90;;;;;;5030194;28;20243;-78
2023/01/10 08:33:03;;;;;;;68.23;34.07;;;8.20;99.90;;;;;;5031860;28;20221;-78
2023/01/10 08:35:52;;;;;;;68.03;33.40;;;8.30;99.90;;;;;;5032555;28;20232;-79
2023/01/10 08:38:40;;;;;;;65.50;32.90;;;8.20;99.90;;;;;;5023364;28;20225;-78
2023/01/10 08:41:30;;;;;;;74.15;33.10;;;8.20;99.90;;;;;;5023035;28;20217;-78
2023/01/10 08:44:20;;;;;;;59.50;31.20;;;8.20;99.90;;;;;;5031126;28;20221;-78
2023/01/10 08:47:08;;;;;;;60.63;31.25;;;8.10;99.90;;;;;;5031767;28;20226;-78
2023/01/10 08:49:57;;;;;;;58.70;30.30;;;8.10;99.90;;;;;;5018072;28;20593;-76
2023/01/10 08:52:46;;;;;;;57.87;30.10;;;8.10;99.90;;;;;;5012796;28;20627;-79
2023/01/10 08:55:35;;;;;;;53.97;29.63;;;8.20;99.90;;;;;;5021213;28;20220;-80
2023/01/10 08:58:23;;;;;;;53.77;29.73;;;8.10;99.90;;;;;;5010692;28;20223;-78
2023/01/10 09:01:14;;;;;;;62.80;30.07;;;8.20;99.90;;;;;;5017755;28;20222;-79
2023/01/10 09:04:02;;;;;;;64.87;31.10;;;8.30;99.90;;;;;;5038676;28;20319;-79
2023/01/10 09:06:51;;;;;;;59.57;31.33;;;8.30;99.90;;;;;;5031592;28;20780;-78
2023/01/10 09:09:40;;;;;;;60.10;31.00;;;8.30;99.90;;;;;;5010441;28;20237;-79
2023/01/10 09:15:37;;;;;;;57.63;31.33;;;8.40;99.90;;;;;;5012441;28;20742;-79
2023/01/10 09:18:27;;;;;;;53.17;29.57;;;8.30;99.90;;;;;;5035203;28;20872;-79
2023/01/10 09:21:16;;;;;;;52.30;28.77;;;8.30;99.90;;;;;;5033740;28;20725;-79
2023/01/10 09:24:06;;;;;;;58.58;29.50;;;8.20;99.90;;;;;;5016240;28;20788;-79
2023/01/10 09:26:54;;;;;;;57.33;30.58;;;8.20;99.90;;;;;;5001690;28;20822;-78
2023/01/10 09:29:43;;;;;;;57.00;30.40;;;8.30;99.90;;;;;;5031571;28;20236;-77
2023/01/10 09:32:32;;;;;;;55.70;30.13;;;8.30;99.90;;;;;;5047098;28;20307;-77
2023/01/10 09:35:22;;;;;;;56.33;30.17;;;8.30;99.90;;;;;;5026018;28;20233;-77
2023/01/10 09:38:14;;;;;;;57.87;29.87;;;8.30;99.90;;;;;;5021350;28;20253;-79
2023/01/10 09:41:17;;;;;;;63.58;30.58;;;8.40;99.90;;;;;;5020516;28;20235;-78
2023/01/10 09:44:20;;;;;;;57.60;29.47;;;8.30;99.90;;;;;;5014427;28;20574;-78
2023/01/10 09:47:16;;;;;;;58.03;30.07;;;8.30;99.90;;;;;;5030086;28;20229;-79
2023/01/10 09:50:21;;;;;;;53.10;29.30;;;8.20;99.90;;;;;;5032460;28;20694;-83
2023/01/10 09:53:17;;;;;;;56.07;29.97;;;8.20;99.90;;;;;;5025029;28;20815;-88
2023/01/10 09:56:08;;;;;;;60.00;29.30;;;8.20;99.90;;;;;;5010803;28;20228;-76
2023/01/10 09:58:59;;;;;;;60.77;29.70;;;8.30;99.90;;;;;;5038035;28;20239;-76
2023/01/10 10:01:48;;;;;;;57.92;28.67;;;8.40;99.90;;;;;;5028596;28;20232;-78
2023/01/10 10:04:40;;;;;;;55.45;30.30;;;8.40;99.90;;;;;;5024871;28;20296;-83
2023/01/10 10:07:29;;;;;;;54.73;29.63;;;8.50;99.90;;;;;;5030623;28;20247;-83
2023/01/10 10:10:27;;;;;;;59.88;30.63;;;8.30;99.90;;;;;;5021354;28;20233;-82
2023/01/10 10:13:25;;;;;;;59.93;28.90;;;8.40;99.90;;;;;;5047083;28;20220;-83
2023/01/10 10:16:26;;;;;;;54.38;29.08;;;8.40;99.90;;;;;;5035705;28;20239;-81
2023/01/10 10:19:26;;;;;;;58.90;30.00;;;8.50;99.90;;;;;;5029704;28;20220;-80
2023/01/10 10:22:24;;;;;;;55.43;29.40;;;8.40;99.90;;;;;;5027876;28;20216;-81
2023/01/10 10:25:30;;;;;;;59.33;29.83;;;8.50;99.90;;;;;;5039746;28;20726;-80
2023/01/10 10:28:43;;;;;;;55.83;29.77;;;8.50;99.90;;;;;;5021174;28;20704;-79
2023/01/10 10:32:04;;;;;;;57.75;29.42;;;8.50;99.90;;;;;;5027074;28;20245;-79
2023/01/10 10:34:58;;;;;;;57.20;28.70;;;8.40;99.90;;;;;;5023571;28;20236;-78
2023/01/10 10:37:50;;;;;;;51.33;28.70;;;8.50;99.90;;;;;;5016404;28;20713;-79
2023/01/10 10:40:44;;;;;;;55.97;29.70;;;8.40;99.90;;;;;;5004714;28;20259;-79
2023/01/10 10:43:35;;;;;;;55.72;29.08;;;8.30;99.90;;;;;;5006752;28;20226;-80
2023/01/10 10:46:25;;;;;;;54.53;28.88;;;8.40;99.90;;;;;;5023065;28;20578;-79
2023/01/10 10:49:18;;;;;;;56.38;29.23;;;8.40;99.90;;;;;;5015096;28;20742;-79
2023/01/10 10:52:17;;;;;;;56.65;30.10;;;8.30;99.90;;;;;;5010953;28;20240;-79
2023/01/10 10:55:12;;;;;;;51.63;30.23;;;8.40;99.90;;;;;;5021334;28;20323;-78
2023/01/10 10:58:03;;;;;;;50.90;27.80;;;8.30;99.90;;;;;;5029252;28;20217;-80
2023/01/10 11:00:53;;;;;;;55.45;30.27;;;8.30;99.90;;;;;;5026654;28;20240;-80
2023/01/10 11:03:47;;;;;;;50.55;28.95;;;8.40;99.90;;;;;;5030280;28;20217;-81
2023/01/10 11:06:37;;;;;;;54.05;29.63;;;8.40;99.90;;;;;;5020290;28;20228;-80
2023/01/10 11:09:29;;;;;;;60.55;30.25;;;8.30;99.90;;;;;;5013535;28;20275;-79
2023/01/10 11:12:21;;;;;;;56.33;30.27;;;8.30;99.90;;;;;;5017629;28;20232;-79
2023/01/10 11:15:11;;;;;;;55.53;27.95;;;8.40;99.90;;;;;;5028222;28;20228;-78
2023/01/10 11:18:05;;;;;;;59.25;30.63;;;8.40;99.90;;;;;;5023959;28;20251;-79
2023/01/10 11:20:57;;;;;;;53.10;28.90;;;8.20;99.90;;;;;;5005809;28;20213;-78
2023/01/10 11:23:52;;;;;;;53.63;27.88;;;8.30;99.90;;;;;;5027102;28;20220;-78
2023/01/10 11:26:41;;;;;;;51.55;27.38;;;8.00;99.90;;;;;;5025194;28;20340;-78
2023/01/10 11:29:38;;;;;;;52.70;29.13;;;8.00;99.90;;;;;;5012719;28;20231;-78
2023/01/10 11:32:34;;;;;;;52.53;27.97;;;8.10;99.90;;;;;;5031372;28;20646;-80
2023/01/10 11:35:27;;;;;;;51.57;28.33;;;8.20;99.90;;;;;;5027359;28;21049;-82
2023/01/10 11:38:23;;;;;;;51.37;28.40;;;8.30;99.90;;;;;;5029039;28;20230;-77
2023/01/10 11:41:26;;;;;;;50.72;27.25;;;8.20;99.90;;;;;;5037563;28;20728;-79
2023/01/10 11:44:22;;;;;;;52.23;27.20;;;8.30;99.90;;;;;;5022633;28;20639;-80
2023/01/10 11:47:19;;;;;;;51.17;27.03;;;8.30;99.90;;;;;;5007345;28;20236;-81
2023/01/10 11:50:11;;;;;;;48.23;26.20;;;8.20;99.90;;;;;;5000647;28;20224;-82
2023/01/10 11:53:00;;;;;;;42.03;24.45;;;8.30;99.90;;;;;;5024226;28;20229;-82
2023/01/10 11:55:49;;;;;;;47.50;25.30;;;8.00;99.90;;;;;;5005920;28;20228;-78
2023/01/10 11:58:39;;;;;;;47.10;26.57;;;8.10;99.90;;;;;;5034207;28;20248;-84
2023/01/10 12:01:35;;;;;;;47.90;26.70;;;8.20;99.90;;;;;;5025402;28;20417;-83
2023/01/10 12:04:26;;;;;;;52.03;26.47;;;8.20;99.90;;;;;;5038027;28;20217;-82
2023/01/10 12:07:17;;;;;;;50.15;26.90;;;8.20;99.90;;;;;;5028528;28;20301;-81
2023/01/10 12:10:19;;;;;;;47.55;25.60;;;8.30;99.90;;;;;;5012635;28;20221;-81
2023/01/10 12:13:15;;;;;;;52.42;27.95;;;8.40;99.90;;;;;;5013866;28;21128;-82
2023/01/10 12:16:18;;;;;;;46.37;26.30;;;8.50;99.90;;;;;;5015410;28;20229;-85
2023/01/10 12:19:15;;;;;;;46.00;26.27;;;8.30;99.90;;;;;;5032738;28;20239;-82
2023/01/10 12:22:07;;;;;;;45.17;25.93;;;8.50;99.90;;;;;;5008460;28;20221;-82
2023/01/10 12:25:00;;;;;;;42.03;25.20;;;8.30;99.90;;;;;;5024982;28;20291;-81
2023/01/10 12:27:49;;;;;;;45.07;24.70;;;8.50;99.90;;;;;;5029402;28;20600;-82
2023/01/10 12:30:42;;;;;;;42.40;24.03;;;8.30;99.90;;;;;;5029530;28;20338;-82
2023/01/10 12:33:34;;;;;;;39.90;23.43;;;8.40;99.90;;;;;;5014793;28;20233;-83
2023/01/10 12:36:43;;;;;;;32.90;20.60;;;8.30;99.90;;;;;;5014076;28;20991;-83
2023/01/10 12:39:34;;;;;;;35.27;22.13;;;8.20;99.90;;;;;;5022201;28;20255;-82
2023/01/10 12:45:54;;;;;;;37.67;21.67;;;8.40;99.90;;;;;;4981473;28;20642;-81
2023/01/10 12:48:49;;;;;;;39.40;22.45;;;8.50;99.90;;;;;;5032710;28;20226;-81
2023/01/10 12:51:39;;;;;;;41.47;23.13;;;8.40;99.90;;;;;;5041894;28;20217;-84
2023/01/10 12:54:30;;;;;;;36.95;22.38;;;8.50;99.90;;;;;;5030307;28;20595;-85
2023/01/10 12:57:28;;;;;;;37.07;22.97;;;8.50;99.90;;;;;;5016700;28;20224;-81
2023/01/10 13:00:23;;;;;;;37.00;20.73;;;8.40;99.90;;;;;;5016550;28;20521;-80
2023/01/10 13:03:15;;;;;;;39.30;22.38;;;8.40;99.90;;;;;;5037959;28;20933;-81
2023/01/10 13:06:04;;;;;;;39.47;23.37;;;8.50;99.90;;;;;;5029195;28;20217;-83
2023/01/10 13:08:54;;;;;;;37.70;22.63;;;8.40;99.90;;;;;;5032213;28;20236;-81
2023/01/10 13:11:48;;;;;;;40.33;23.80;;;8.50;99.90;;;;;;5018465;28;20275;-77
2023/01/10 13:14:44;;;;;;;43.22;25.15;;;8.50;99.90;;;;;;5033031;28;20226;-78
2023/01/10 13:17:39;;;;;;;39.13;24.17;;;8.50;99.90;;;;;;5016124;28;20225;-82
2023/01/10 13:20:35;;;;;;;37.03;22.77;;;8.50;99.90;;;;;;5009097;28;20233;-80
2023/01/10 13:23:30;;;;;;;37.97;23.23;;;8.50;99.90;;;;;;5005588;28;20743;-81
2023/01/10 13:26:19;;;;;;;38.92;23.23;;;8.50;99.90;;;;;;5025038;28;20232;-86
2023/01/10 13:29:12;;;;;;;42.47;23.52;;;8.50;99.90;;;;;;5014802;28;20225;-81
2023/01/10 13:32:02;;;;;;;40.90;23.80;;;8.50;99.90;;;;;;5022135;28;20247;-81
2023/01/10 13:34:52;;;;;;;42.10;24.55;;;8.50;99.90;;;;;;5018559;28;20267;-81
2023/01/10 13:37:44;;;;;;;37.80;23.80;;;8.50;99.90;;;;;;5030874;28;20446;-80
2023/01/10 13:40:33;;;;;;;39.63;24.27;;;8.60;99.90;;;;;;5032885;28;20221;-80
2023/01/10 13:43:33;;;;;;;41.57;23.73;;;8.60;99.90;;;;;;5032822;28;20239;-80
2023/01/10 13:46:42;;;;;;;43.55;24.48;;;8.50;99.90;;;;;;5036728;28;20221;-81
2023/01/10 13:49:50;;;;;;;39.60;25.03;;;8.50;99.90;;;;;;5030308;28;20237;-82
2023/01/10 13:52:39;;;;;;;39.17;23.95;;;8.50;99.90;;;;;;5033616;28;20336;-81
2023/01/10 13:55:35;;;;;;;46.13;24.63;;;8.40;99.90;;;;;;5013220;28;20229;-81
2023/01/10 14:05:09;;;;;;;41.67;24.63;;;8.50;99.90;;;;;;5016235;28;20408;-80
2023/01/10 14:07:59;;;;;;;33.33;22.65;;;8.50;99.90;;;;;;5008861;28;20214;-80
2023/01/10 14:11:04;;;;;;;40.00;26.03;;;8.50;99.90;;;;;;5007128;28;20346;-79
2023/01/10 14:13:56;;;;;;;43.77;26.13;;;8.40;99.90;;;;;;5027218;28;20677;-82
2023/01/10 14:16:48;;;;;;;39.20;24.40;;;8.50;99.90;;;;;;5030860;28;20414;-81
2023/01/10 14:19:38;;;;;;;41.80;25.57;;;8.50;99.90;;;;;;5033746;28;20220;-77
2023/01/10 14:22:30;;;;;;;41.72;24.67;;;8.40;99.90;;;;;;5030335;28;20456;-77
2023/01/10 14:25:21;;;;;;;42.28;24.48;;;8.50;99.90;;;;;;5025318;28;20354;-78
2023/01/10 14:28:23;;;;;;;45.22;25.20;;;8.40;99.90;;;;;;5030921;28;20287;-79
2023/01/10 14:31:19;;;;;;;38.33;23.00;;;8.40;99.90;;;;;;5016446;28;20225;-76
2023/01/10 14:34:13;;;;;;;39.15;24.50;;;8.50;99.90;;;;;;5032051;28;20217;-78
2023/01/10 14:37:09;;;;;;;42.70;24.97;;;8.50;99.90;;;;;;5026257;28;20258;-78
2023/01/10 14:40:00;;;;;;;39.47;23.50;;;8.50;99.90;;;;;;5040547;28;20233;-78
2023/01/10 14:42:50;;;;;;;46.60;23.63;;;8.40;99.90;;;;;;5039630;28;20259;-79
2023/01/10 14:45:43;;;;;;;39.23;22.60;;;8.40;99.90;;;;;;5028578;28;20290;-78
2023/01/10 14:48:33;;;;;;;39.10;22.13;;;8.40;99.90;;;;;;5031480;28;20268;-77
2023/01/10 14:51:25;;;;;;;36.13;22.00;;;8.40;99.90;;;;;;5032949;28;20276;-83
2023/01/10 14:54:16;;;;;;;39.90;21.85;;;8.40;99.90;;;;;;5018268;28;20359;-78
2023/01/10 14:57:17;;;;;;;39.45;21.58;;;8.40;99.90;;;;;;5028690;28;20299;-73
2023/01/10 15:00:09;;;;;;;34.35;20.88;;;8.30;99.90;;;;;;5044187;28;20246;-78
2023/01/10 15:03:00;;;;;;;37.10;22.13;;;8.40;99.90;;;;;;5034978;28;20349;-81
2023/01/10 15:05:51;;;;;;;34.20;21.17;;;8.30;99.90;;;;;;5026138;28;20239;-82